createdAt,value
2023-01-06T00:01:17.023Z,98706.38
2023-01-06T00:03:44.017Z,98705.63
2023-01-06T00:06:12.115Z,98712.63
2023-01-06T00:08:40.539Z,98693.41
2023-01-06T00:13:23.510Z,98691.13
2023-01-06T00:15:50.423Z,98687.50
2023-01-06T00:18:16.996Z,98720.94
2023-01-06T00:20:43.602Z,98720.94
2023-01-06T00:23:10.209Z,98720.09
2023-01-06T00:25:37.147Z,98729.84
2023-01-06T00:28:03.875Z,98707.97
2023-01-06T00:30:32.212Z,98709.53
2023-01-06T00:32:58.872Z,98723.97
2023-01-06T00:35:25.482Z,98742.69
2023-01-06T00:37:52.060Z,98743.03
2023-01-06T00:40:18.650Z,98742.91
2023-01-06T00:42:45.176Z,98754.03
2023-01-06T00:45:11.940Z,98762.06
2023-01-06T00:47:38.613Z,98762.06
2023-01-06T00:50:05.747Z,98758.59
2023-01-06T00:52:32.436Z,98733.06
2023-01-06T00:54:59.164Z,98773.72
2023-01-06T00:57:25.992Z,98749.00
2023-01-06T00:59:52.709Z,98754.19
2023-01-06T01:02:19.721Z,98770.47
2023-01-06T01:04:46.719Z,98762.84
2023-01-06T01:07:13.578Z,98780.94
2023-01-06T01:09:40.250Z,98778.41
2023-01-06T01:12:09.922Z,98780.56
2023-01-06T01:14:42.046Z,98787.56
2023-01-06T01:17:11.377Z,98768.44
2023-01-06T01:19:38.913Z,98792.94
2023-01-06T01:22:06.030Z,98799.84
2023-01-06T01:24:32.818Z,98807.06
2023-01-06T01:26:59.715Z,98808.22
2023-01-06T01:29:26.996Z,98817.66
2023-01-06T01:31:54.464Z,98744.97
2023-01-06T01:34:22.204Z,98740.97
2023-01-06T01:36:50.939Z,98828.38
2023-01-06T01:39:20.164Z,98774.47
2023-01-06T01:41:47.236Z,98785.03
2023-01-06T01:45:05.911Z,98825.81
2023-01-06T01:48:04.865Z,98834.72
2023-01-06T01:50:46.391Z,98828.91
2023-01-06T01:53:30.766Z,98830.13
2023-01-06T01:56:03.120Z,98850.03
2023-01-06T01:58:38.624Z,98843.84
2023-01-06T02:01:08.755Z,98799.25
2023-01-06T02:03:37.375Z,98844.94
2023-01-06T02:06:16.402Z,98847.47
2023-01-06T02:09:10.905Z,98832.25
2023-01-06T02:11:41.648Z,98843.06
2023-01-06T02:14:16.319Z,98825.22
2023-01-06T02:16:54.745Z,98847.69
2023-01-06T02:19:36.854Z,98850.06
2023-01-06T02:22:31.492Z,98864.56
2023-01-06T02:25:04.290Z,98863.72
2023-01-06T02:27:52.109Z,98857.25
2023-01-06T02:30:56.627Z,98871.75
2023-01-06T02:33:27.701Z,98872.69
2023-01-06T02:35:57.558Z,98861.09
2023-01-06T02:38:39.344Z,98874.63
2023-01-06T02:41:07.905Z,98884.38
2023-01-06T02:43:42.570Z,98877.28
2023-01-06T02:46:30.383Z,98876.53
2023-01-06T02:49:12.378Z,98884.47
2023-01-06T02:51:59.475Z,98885.44
2023-01-06T02:54:43.538Z,98870.22
2023-01-06T02:57:32.012Z,98864.50
2023-01-06T03:00:34.711Z,98886.50
2023-01-06T03:03:08.025Z,98877.31
2023-01-06T03:05:38.291Z,98879.88
2023-01-06T03:08:15.906Z,98885.75
2023-01-06T03:10:46.701Z,98884.28
2023-01-06T03:13:30.021Z,98883.47
2023-01-06T03:15:59.218Z,98894.69
2023-01-06T03:18:26.534Z,98860.41
2023-01-06T03:20:57.645Z,98877.66
2023-01-06T03:23:24.585Z,98888.63
2023-01-06T03:25:51.433Z,98888.63
2023-01-06T03:28:22.060Z,98895.75
2023-01-06T03:31:32.813Z,98897.53
2023-01-06T03:34:05.407Z,98905.59
2023-01-06T03:36:44.989Z,98903.91
2023-01-06T03:39:25.823Z,98903.91
2023-01-06T03:42:35.598Z,98904.84
2023-01-06T03:45:32.668Z,98897.84
2023-01-06T03:48:41.529Z,98901.50
2023-01-06T03:51:33.153Z,98885.06
2023-01-06T03:54:30.612Z,98898.09
2023-01-06T03:57:25.284Z,98898.09
2023-01-06T04:00:24.619Z,98903.50
2023-01-06T04:02:58.551Z,98908.81
2023-01-06T04:05:28.123Z,98885.84
2023-01-06T04:07:57.106Z,98893.66
2023-01-06T04:10:24.223Z,98906.97
2023-01-06T04:12:54.679Z,98895.88
2023-01-06T04:15:31.050Z,98891.22
2023-01-06T04:17:59.261Z,98917.06
2023-01-06T04:20:30.167Z,98917.69
2023-01-06T04:23:19.700Z,98919.06
2023-01-06T04:25:46.474Z,98921.59
2023-01-06T04:28:21.710Z,98900.66
2023-01-06T04:30:50.964Z,98921.22
2023-01-06T04:33:17.830Z,98932.19
2023-01-06T04:35:46.544Z,98941.72
2023-01-06T04:38:16.227Z,98919.06
2023-01-06T04:40:43.467Z,98943.53
2023-01-06T04:43:16.045Z,98940.03
2023-01-06T04:45:44.111Z,98947.13
2023-01-06T04:48:11.812Z,98919.19
2023-01-06T04:50:38.816Z,98923.41
2023-01-06T04:53:06.572Z,98945.44
2023-01-06T04:55:33.566Z,98879.16
2023-01-06T04:58:00.222Z,98939.50
2023-01-06T05:00:26.954Z,98926.06
2023-01-06T05:02:53.517Z,98941.09
2023-01-06T05:05:20.210Z,98943.72
2023-01-06T05:07:46.827Z,98945.44
2023-01-06T05:10:13.471Z,98946.50
2023-01-06T05:12:40.321Z,98954.13
2023-01-06T05:15:07.630Z,98937.16
2023-01-06T05:17:34.277Z,98954.13
2023-01-06T05:20:01.065Z,98948.84
2023-01-06T05:22:27.687Z,98944.69
2023-01-06T05:24:54.340Z,98940.88
2023-01-06T05:27:20.997Z,98951.47
2023-01-06T05:29:47.625Z,98956.78
2023-01-06T05:32:14.224Z,98947.69
2023-01-06T05:34:40.833Z,98944.28
2023-01-06T05:37:07.504Z,98962.06
2023-01-06T05:39:34.178Z,98919.69
2023-01-06T05:42:00.827Z,98923.19
2023-01-06T05:44:28.012Z,98958.56
2023-01-06T05:46:54.783Z,98921.59
2023-01-06T05:49:21.968Z,98916.41
2023-01-06T05:51:48.559Z,98927.94
2023-01-06T05:54:15.306Z,98947.63
2023-01-06T05:56:42.023Z,98978.50
2023-01-06T05:59:08.649Z,98978.56
2023-01-06T06:01:35.273Z,98963.50
2023-01-06T06:04:02.004Z,98958.53
2023-01-06T06:06:30.811Z,98972.56
2023-01-06T06:08:58.689Z,98975.53
2023-01-06T06:11:25.796Z,98971.28
2023-01-06T06:13:55.239Z,98960.22
2023-01-06T06:16:24.557Z,98986.09
2023-01-06T06:18:53.865Z,98993.19
2023-01-06T06:21:23.544Z,98986.22
2023-01-06T06:23:52.662Z,98951.13
2023-01-06T06:26:19.661Z,98985.97
2023-01-06T06:28:46.190Z,98991.47
2023-01-06T06:33:25.116Z,98989.03
2023-01-06T06:35:58.704Z,98980.00
2023-01-06T06:38:26.018Z,98994.41
2023-01-06T06:40:52.685Z,99020.16
2023-01-06T06:43:19.477Z,99018.44
2023-01-06T06:45:47.507Z,99015.91
2023-01-06T06:48:16.748Z,98991.53
2023-01-06T06:50:43.387Z,99017.63
2023-01-06T06:53:10.110Z,99029.16
2023-01-06T06:55:36.800Z,99016.75
2023-01-06T06:58:03.542Z,99022.47
2023-01-06T07:00:30.292Z,99024.81
2023-01-06T07:02:56.977Z,99033.69
2023-01-06T07:05:25.608Z,98965.28
2023-01-06T07:07:52.683Z,99041.63
2023-01-06T07:10:19.395Z,99051.38
2023-01-06T07:12:46.124Z,99055.84
2023-01-06T07:15:12.891Z,99050.53
2023-01-06T07:17:41.620Z,99032.09
2023-01-06T07:20:09.317Z,99006.66
2023-01-06T07:22:40.134Z,99057.63
2023-01-06T07:25:08.983Z,99049.34
2023-01-06T07:27:36.144Z,99051.16
2023-01-06T07:30:04.963Z,99061.22
2023-01-06T07:32:31.548Z,99061.31
2023-01-06T07:34:58.249Z,99054.63
2023-01-06T07:37:24.885Z,99063.97
2023-01-06T07:39:51.599Z,99046.38
2023-01-06T07:42:18.309Z,99013.00
2023-01-06T07:44:45.089Z,99059.63
2023-01-06T07:47:11.831Z,99061.44
2023-01-06T07:49:38.458Z,99044.69
2023-01-06T07:52:05.142Z,99067.66
2023-01-06T07:54:31.769Z,99072.00
2023-01-06T07:56:58.446Z,99079.09
2023-01-06T07:59:25.221Z,99059.09
2023-01-06T08:01:51.803Z,99046.78
2023-01-06T08:04:18.781Z,99029.09
2023-01-06T08:06:45.402Z,99064.91
2023-01-06T08:09:12.066Z,99084.50
2023-01-06T08:11:38.737Z,99100.38
2023-01-06T08:14:05.525Z,99093.66
2023-01-06T08:16:32.112Z,99094.25
2023-01-06T08:18:58.790Z,99074.84
2023-01-06T08:21:25.553Z,99104.81
2023-01-06T08:23:52.351Z,99102.19
2023-01-06T08:26:18.952Z,99102.19
2023-01-06T08:28:46.433Z,99077.56
2023-01-06T08:31:18.724Z,99091.34
2023-01-06T08:33:45.789Z,99058.47
2023-01-06T08:36:15.262Z,99071.53
2023-01-06T08:38:41.977Z,99057.41
2023-01-06T08:41:09.657Z,99051.47
2023-01-06T08:43:36.865Z,99103.13
2023-01-06T08:46:08.947Z,99109.34
2023-01-06T08:48:35.707Z,99104.06
2023-01-06T08:51:14.738Z,99098.78
2023-01-06T08:53:41.582Z,99110.19
2023-01-06T08:56:20.502Z,99093.88
2023-01-06T08:58:58.505Z,99099.38
2023-01-06T09:01:32.409Z,99102.38
2023-01-06T09:04:00.957Z,99070.13
2023-01-06T09:06:28.607Z,99065.13
2023-01-06T09:08:57.029Z,99107.53
2023-01-06T09:11:24.219Z,99105.66
2023-01-06T09:13:51.481Z,99101.19
2023-01-06T09:16:19.741Z,99103.78
2023-01-06T09:18:52.497Z,99079.19
2023-01-06T09:21:21.834Z,99104.50
2023-01-06T09:23:50.764Z,99079.59
2023-01-06T09:26:18.809Z,99093.72
2023-01-06T09:28:45.472Z,99099.00
2023-01-06T09:31:12.402Z,99096.38
2023-01-06T09:33:39.549Z,99098.25
2023-01-06T09:36:07.268Z,99108.53
2023-01-06T09:38:33.870Z,99082.06
2023-01-06T09:41:13.000Z,99094.56
2023-01-06T09:44:09.061Z,99079.50
2023-01-06T09:46:38.839Z,99089.25
2023-01-06T09:49:38.755Z,99077.84
2023-01-06T09:52:19.324Z,99068.19
2023-01-06T09:55:02.671Z,99033.84
2023-01-06T09:57:33.923Z,99049.34
2023-01-06T10:00:08.420Z,99060.38
2023-01-06T10:02:38.966Z,99036.44
2023-01-06T10:05:28.184Z,99040.34
2023-01-06T10:08:20.793Z,99035.63
2023-01-06T10:10:53.305Z,99046.28
2023-01-06T10:13:29.002Z,99046.28
2023-01-06T10:16:27.703Z,99037.38
2023-01-06T10:19:26.554Z,99028.63
2023-01-06T10:22:10.873Z,99034.75
2023-01-06T10:24:55.100Z,99031.25
2023-01-06T10:27:36.345Z,99011.47
2023-01-06T10:30:06.928Z,99011.34
2023-01-06T10:32:36.687Z,99014.63
2023-01-06T10:35:03.655Z,99007.34
2023-01-06T10:37:39.230Z,99010.84
2023-01-06T10:40:29.348Z,98996.75
2023-01-06T10:43:06.861Z,98995.47
2023-01-06T10:45:45.720Z,98992.00
2023-01-06T10:48:15.645Z,98995.16
2023-01-06T10:50:42.657Z,98985.84
2023-01-06T10:53:14.136Z,98990.72
2023-01-06T10:55:44.077Z,98993.28
2023-01-06T10:58:17.531Z,98989.88
2023-01-06T11:01:12.111Z,98991.56
2023-01-06T11:03:42.806Z,98996.88
2023-01-06T11:06:21.930Z,98993.34
2023-01-06T11:08:48.843Z,98985.41
2023-01-06T11:11:27.698Z,98987.34
2023-01-06T11:13:59.441Z,98961.50
2023-01-06T11:16:33.034Z,98977.59
2023-01-06T11:19:08.529Z,98971.66
2023-01-06T11:21:43.288Z,98973.34
2023-01-06T11:24:31.725Z,98964.03
2023-01-06T11:27:14.085Z,98970.94
2023-01-06T11:29:40.935Z,98961.50
2023-01-06T11:32:18.193Z,98973.34
2023-01-06T11:34:55.977Z,98964.66
2023-01-06T11:37:34.819Z,98969.88
2023-01-06T11:40:16.704Z,98975.25
2023-01-06T11:42:44.151Z,98982.34
2023-01-06T11:45:32.245Z,98973.25
2023-01-06T11:47:59.100Z,98985.00
2023-01-06T11:50:25.966Z,98981.53
2023-01-06T11:53:14.414Z,98981.53
2023-01-06T11:55:41.118Z,98975.47
2023-01-06T11:58:19.994Z,98961.78
2023-01-06T12:00:46.577Z,98974.59
2023-01-06T12:03:21.638Z,98964.03
2023-01-06T12:06:14.859Z,98946.25
2023-01-06T12:08:59.409Z,98955.25
2023-01-06T12:11:53.556Z,98949.97
2023-01-06T12:14:29.485Z,98954.41
2023-01-06T12:17:16.321Z,98942.97
2023-01-06T12:20:21.574Z,98944.56
2023-01-06T12:23:01.652Z,98929.56
2023-01-06T12:25:35.079Z,98905.09
2023-01-06T12:28:21.253Z,98899.59
2023-01-06T12:30:55.591Z,98911.88
2023-01-06T12:33:33.945Z,98902.34
2023-01-06T12:36:08.815Z,98899.16
2023-01-06T12:38:47.393Z,98915.38
2023-01-06T12:41:25.296Z,98913.75
2023-01-06T12:44:16.368Z,98899.28
2023-01-06T12:46:55.431Z,98911.75
2023-01-06T12:49:30.731Z,98906.81
2023-01-06T12:52:03.641Z,98895.34
2023-01-06T12:54:33.520Z,98902.16
2023-01-06T12:57:09.141Z,98908.28
2023-01-06T12:59:35.786Z,98896.84
2023-01-06T13:02:16.516Z,98902.97
2023-01-06T13:05:11.085Z,98892.06
2023-01-06T13:08:08.154Z,98901.28
2023-01-06T13:10:40.175Z,98897.81
2023-01-06T13:13:36.380Z,98896.94
2023-01-06T13:16:15.230Z,98878.75
2023-01-06T13:19:07.340Z,98881.06
2023-01-06T13:21:37.284Z,98864.91
2023-01-06T13:24:27.172Z,98870.72
2023-01-06T13:27:03.014Z,98871.44
2023-01-06T13:29:46.166Z,98758.91
2023-01-06T13:32:15.657Z,98861.81
2023-01-06T13:35:05.573Z,98866.13
2023-01-06T13:37:36.910Z,98866.25
2023-01-06T13:40:11.385Z,98857.47
2023-01-06T13:43:02.268Z,98859.25
2023-01-06T13:45:32.790Z,98853.25
2023-01-06T13:48:01.571Z,98834.84
2023-01-06T13:50:28.842Z,98847.97
2023-01-06T13:52:55.724Z,98840.03
2023-01-06T13:55:23.537Z,98834.81
2023-01-06T13:57:50.838Z,98829.53
2023-01-06T14:00:25.155Z,98824.34
2023-01-06T14:02:51.945Z,98825.22
2023-01-06T14:05:21.658Z,98831.47
2023-01-06T14:07:59.714Z,98828.81
2023-01-06T14:10:36.684Z,98812.41
2023-01-06T14:13:07.321Z,98818.44
2023-01-06T14:15:36.548Z,98807.97
2023-01-06T14:18:04.032Z,98795.16
2023-01-06T14:20:37.831Z,98807.13
2023-01-06T14:23:18.079Z,98792.72
2023-01-06T14:25:53.671Z,98793.16
2023-01-06T14:28:20.217Z,98787.00
2023-01-06T14:30:48.574Z,98789.88
2023-01-06T14:33:35.537Z,98788.19
2023-01-06T14:36:06.631Z,98789.06
2023-01-06T14:38:42.935Z,98785.53
2023-01-06T14:41:49.156Z,98802.34
2023-01-06T14:44:18.530Z,98783.63
2023-01-06T14:47:07.448Z,98789.38
2023-01-06T14:49:55.151Z,98798.25
2023-01-06T14:52:38.859Z,98783.00
2023-01-06T14:55:12.060Z,98794.78
2023-01-06T14:57:39.811Z,98757.22
2023-01-06T15:00:16.254Z,98776.47
2023-01-06T15:02:46.675Z,98772.22
2023-01-06T15:05:23.247Z,98777.41
2023-01-06T15:08:04.602Z,98779.22
2023-01-06T15:10:35.366Z,98756.59
2023-01-06T15:13:03.189Z,98784.50
2023-01-06T15:15:32.334Z,98778.34
2023-01-06T15:18:01.826Z,98782.81
2023-01-06T15:20:35.147Z,98777.63
2023-01-06T15:23:02.716Z,98750.25
2023-01-06T15:25:31.498Z,98733.50
2023-01-06T15:27:58.292Z,98772.44
2023-01-06T15:30:27.751Z,98760.38
2023-01-06T15:32:56.073Z,98733.31
2023-01-06T15:35:27.351Z,98742.75
2023-01-06T15:38:20.067Z,98768.19
2023-01-06T15:40:46.910Z,98761.66
2023-01-06T15:43:17.048Z,98755.13
2023-01-06T15:45:55.382Z,98781.44
2023-01-06T15:48:29.711Z,98767.81
2023-01-06T15:50:57.066Z,98765.69
2023-01-06T15:53:28.324Z,98740.22
2023-01-06T15:55:58.359Z,98755.13
2023-01-06T15:58:43.557Z,98772.84
2023-01-06T16:01:18.469Z,98773.84
2023-01-06T16:03:51.898Z,98770.31
2023-01-06T16:06:28.577Z,98761.56
2023-01-06T16:09:25.842Z,98744.84
2023-01-06T16:12:16.761Z,98748.44
2023-01-06T16:14:46.478Z,98738.84
2023-01-06T16:17:19.017Z,98737.84
2023-01-06T16:20:00.197Z,98734.69
2023-01-06T16:22:29.683Z,98722.97
2023-01-06T16:24:56.859Z,98731.84
2023-01-06T16:27:27.698Z,98744.22
2023-01-06T16:30:14.918Z,98736.28
2023-01-06T16:32:43.091Z,98731.53
2023-01-06T16:35:22.139Z,98726.75
2023-01-06T16:37:49.474Z,98724.34
2023-01-06T16:40:17.865Z,98732.91
2023-01-06T16:42:45.884Z,98715.31
2023-01-06T16:45:31.135Z,98722.34
2023-01-06T16:47:58.064Z,98718.00
2023-01-06T16:50:39.690Z,98722.44
2023-01-06T16:53:18.675Z,98717.25
2023-01-06T16:55:45.740Z,98719.78
2023-01-06T16:58:20.493Z,98717.13
2023-01-06T17:00:52.440Z,98701.69
2023-01-06T17:03:22.383Z,98704.91
2023-01-06T17:05:49.482Z,98700.66
2023-01-06T17:08:25.854Z,98694.81
2023-01-06T17:10:52.525Z,98704.16
2023-01-06T17:13:39.697Z,98701.59
2023-01-06T17:16:15.877Z,98704.16
2023-01-06T17:19:06.847Z,98709.44
2023-01-06T17:21:35.238Z,98704.25
2023-01-06T17:24:04.764Z,98705.09
2023-01-06T17:26:31.393Z,98706.00
2023-01-06T17:28:59.827Z,98702.53
2023-01-06T17:31:35.410Z,98706.88
2023-01-06T17:34:10.914Z,98706.25
2023-01-06T17:36:40.077Z,98707.94
2023-01-06T17:39:28.547Z,98708.78
2023-01-06T17:42:02.002Z,98710.47
2023-01-06T17:44:38.069Z,98705.09
2023-01-06T17:47:29.215Z,98710.59
2023-01-06T17:49:57.870Z,98714.06
2023-01-06T17:52:31.988Z,98711.41
2023-01-06T17:55:43.321Z,98710.59
2023-01-06T17:58:18.025Z,98710.59
2023-01-06T18:00:45.543Z,98706.25
2023-01-06T18:03:18.016Z,98708.88
2023-01-06T18:05:45.108Z,98712.38
2023-01-06T18:08:16.316Z,98696.19
2023-01-06T18:10:45.726Z,98714.19
2023-01-06T18:13:34.451Z,98720.41
2023-01-06T18:16:04.151Z,98708.69
2023-01-06T18:18:38.424Z,98713.44
2023-01-06T18:21:17.252Z,98715.13
2023-01-06T18:23:47.275Z,98717.88
2023-01-06T18:26:31.392Z,98702.84
2023-01-06T18:29:02.158Z,98709.94
2023-01-06T18:31:36.058Z,98704.75
2023-01-06T18:34:20.715Z,98703.81
2023-01-06T18:36:49.587Z,98705.63
2023-01-06T18:39:21.270Z,98654.91
2023-01-06T18:41:48.737Z,98711.84
2023-01-06T18:44:19.551Z,98708.25
2023-01-06T18:46:46.274Z,98666.19
2023-01-06T18:49:15.787Z,98716.19
2023-01-06T18:51:43.399Z,98708.25
2023-01-06T18:54:21.802Z,98699.47
2023-01-06T18:56:48.906Z,98691.53
2023-01-06T18:59:18.848Z,98692.41
2023-01-06T19:01:50.593Z,98659.00
2023-01-06T19:04:29.112Z,98685.41
2023-01-06T19:07:00.684Z,98685.41
2023-01-06T19:09:45.874Z,98685.41
2023-01-06T19:12:32.772Z,98687.22
2023-01-06T19:15:17.536Z,98689.88
2023-01-06T19:17:46.697Z,98683.72
2023-01-06T19:20:17.436Z,98685.09
2023-01-06T19:22:44.968Z,98699.59
2023-01-06T19:25:37.330Z,98699.59
2023-01-06T19:28:15.194Z,98687.84
2023-01-06T19:30:45.400Z,98701.38
2023-01-06T19:33:34.403Z,98690.81
2023-01-06T19:36:04.319Z,98694.41
2023-01-06T19:38:38.535Z,98698.84
2023-01-06T19:41:15.344Z,98696.19
2023-01-06T19:43:43.071Z,98692.72
2023-01-06T19:46:24.414Z,98666.31
2023-01-06T19:48:55.667Z,98696.41
2023-01-06T19:51:35.924Z,98699.69
2023-01-06T19:54:17.240Z,98702.44
2023-01-06T19:56:44.102Z,98684.59
2023-01-06T19:59:27.262Z,98702.44
2023-01-06T20:02:12.176Z,98713.03
2023-01-06T20:04:42.893Z,98694.22
2023-01-06T20:07:12.457Z,98709.53
2023-01-06T20:09:39.150Z,98701.19
2023-01-06T20:12:06.001Z,98711.22
2023-01-06T20:14:32.827Z,98706.25
2023-01-06T20:17:01.994Z,98714.81
2023-01-06T20:19:31.812Z,98713.09
2023-01-06T20:22:01.025Z,98721.91
2023-01-06T20:24:27.863Z,98720.09
2023-01-06T20:26:54.520Z,98714.16
2023-01-06T20:29:21.420Z,98728.00
2023-01-06T20:31:48.308Z,98713.09
2023-01-06T20:34:15.173Z,98716.63
2023-01-06T20:36:41.840Z,98721.03
2023-01-06T20:39:08.702Z,98717.44
2023-01-06T20:41:35.418Z,98713.22
2023-01-06T20:44:04.767Z,98718.38
2023-01-06T20:46:34.155Z,98722.72
2023-01-06T20:49:03.866Z,98720.19
2023-01-06T20:51:33.646Z,98724.63
2023-01-06T20:54:11.999Z,98718.50
2023-01-06T20:56:39.212Z,98714.06
2023-01-06T20:59:08.870Z,98727.19
2023-01-06T21:01:41.781Z,98717.56
2023-01-06T21:04:08.817Z,98727.19
2023-01-06T21:06:40.661Z,98726.31
2023-01-06T21:09:09.917Z,98731.84
2023-01-06T21:11:37.821Z,98731.59
2023-01-06T21:14:04.941Z,98722.41
2023-01-06T21:16:31.922Z,98728.88
2023-01-06T21:19:03.658Z,98707.22
2023-01-06T21:21:32.997Z,98722.31
2023-01-06T21:24:00.396Z,98699.28
2023-01-06T21:26:27.215Z,98742.94
2023-01-06T21:28:54.979Z,98694.97
2023-01-06T21:31:24.355Z,98704.88
2023-01-06T21:33:52.402Z,98702.53
2023-01-06T21:36:19.181Z,98750.03
2023-01-06T21:38:45.792Z,98752.66
2023-01-06T21:41:31.066Z,98751.16
2023-01-06T21:43:58.041Z,98752.66
2023-01-06T21:46:24.798Z,98761.44
2023-01-06T21:48:51.577Z,98741.66
2023-01-06T21:51:18.672Z,98734.38
2023-01-06T21:53:46.187Z,98761.44
2023-01-06T21:56:12.927Z,98747.47
2023-01-06T21:58:40.992Z,98745.34
2023-01-06T22:01:07.749Z,98770.09
2023-01-06T22:03:37.560Z,98754.31
2023-01-06T22:06:04.901Z,98752.22
2023-01-06T22:08:32.731Z,98770.94
2023-01-06T22:11:00.902Z,98722.09
2023-01-06T22:13:28.546Z,98776.22
2023-01-06T22:15:55.649Z,98774.44
2023-01-06T22:18:22.561Z,98782.38
2023-01-06T22:20:49.219Z,98775.06
2023-01-06T22:23:20.856Z,98789.31
2023-01-06T22:25:47.680Z,98793.78
2023-01-06T22:28:14.258Z,98777.91
2023-01-06T22:30:40.934Z,98782.25
2023-01-06T22:33:07.650Z,98778.75
2023-01-06T22:35:34.260Z,98764.25
2023-01-06T22:38:01.138Z,98749.69
2023-01-06T22:40:28.271Z,98776.97
2023-01-06T22:42:54.907Z,98760.59
2023-01-06T22:45:21.649Z,98766.41
2023-01-06T22:47:48.305Z,98736.03
2023-01-06T22:50:15.021Z,98774.34
2023-01-06T22:52:41.978Z,98722.63
2023-01-06T22:55:09.529Z,98778.66
2023-01-06T22:57:36.150Z,98779.50
2023-01-06T23:00:08.587Z,98777.81
2023-01-06T23:02:35.433Z,98774.34
2023-01-06T23:05:02.315Z,98776.97
2023-01-06T23:07:29.266Z,98753.28
2023-01-06T23:09:55.924Z,98776.66
2023-01-06T23:12:22.642Z,98760.56
2023-01-06T23:14:49.218Z,98778.44
2023-01-06T23:17:15.973Z,98784.03
2023-01-06T23:19:42.497Z,98781.41
2023-01-06T23:22:09.215Z,98785.72
2023-01-06T23:24:35.826Z,98786.69
2023-01-06T23:27:02.719Z,98764.69
2023-01-06T23:29:30.780Z,98794.41
2023-01-06T23:31:57.469Z,98800.66
2023-01-06T23:34:24.005Z,98764.28
2023-01-06T23:36:50.723Z,98798.84
2023-01-06T23:39:17.448Z,98804.13
2023-01-06T23:41:44.120Z,98802.66
2023-01-06T23:44:16.543Z,98783.94
2023-01-06T23:46:44.485Z,98810.28
2023-01-06T23:51:39.974Z,98803.72
2023-01-06T23:54:07.805Z,98812.06
2023-01-06T23:56:37.344Z,98797.91
2023-01-06T23:59:05.959Z,98795.66
